createdAt,value
2023-03-12T00:00:41.442Z,3.45
2023-03-12T00:06:45.921Z,5.65
2023-03-12T00:09:48.186Z,2.90
2023-03-12T00:12:50.466Z,3.70
2023-03-12T00:15:52.714Z,3.50
2023-03-12T00:18:55.656Z,3.13
2023-03-12T00:21:57.911Z,3.05
2023-03-12T00:25:00.313Z,2.95
2023-03-12T00:28:02.577Z,2.80
2023-03-12T00:31:16.975Z,2.58
2023-03-12T00:34:19.226Z,3.05
2023-03-12T00:37:22.332Z,3.22
2023-03-12T00:40:24.609Z,3.17
2023-03-12T00:43:26.880Z,2.75
2023-03-12T00:46:29.251Z,2.85
2023-03-12T00:49:31.630Z,3.00
2023-03-12T00:52:33.917Z,2.47
2023-03-12T00:55:36.258Z,2.72
2023-03-12T00:58:38.666Z,2.72
2023-03-12T01:01:41.264Z,2.70
2023-03-12T01:04:45.986Z,2.95
2023-03-12T01:07:48.264Z,3.05
2023-03-12T01:10:50.650Z,2.72
2023-03-12T01:13:53.096Z,3.10
2023-03-12T01:16:55.348Z,3.05
2023-03-12T01:19:57.670Z,2.95
2023-03-12T01:22:59.924Z,2.53
2023-03-12T01:26:02.287Z,2.72
2023-03-12T01:29:04.553Z,2.72
2023-03-12T01:32:07.202Z,2.60
2023-03-12T01:35:10.422Z,2.63
2023-03-12T01:38:14.932Z,2.90
2023-03-12T01:41:17.605Z,2.97
2023-03-12T01:44:20.017Z,2.80
2023-03-12T01:47:23.270Z,2.78
2023-03-12T01:50:25.754Z,2.67
2023-03-12T01:53:28.724Z,2.97
2023-03-12T01:56:33.423Z,2.83
2023-03-12T01:59:41.111Z,3.10
2023-03-12T02:02:44.230Z,2.42
2023-03-12T02:05:56.229Z,2.67
2023-03-12T02:09:00.733Z,3.05
2023-03-12T02:12:04.598Z,2.63
2023-03-12T02:15:07.727Z,2.47
2023-03-12T02:18:13.887Z,2.97
2023-03-12T02:21:20.629Z,2.72
2023-03-12T02:25:03.970Z,3.00
2023-03-12T02:28:09.620Z,2.67
2023-03-12T02:31:14.767Z,2.90
2023-03-12T02:34:17.084Z,3.10
2023-03-12T02:37:20.221Z,2.78
2023-03-12T02:40:39.470Z,2.92
2023-03-12T02:43:46.266Z,3.00
2023-03-12T02:46:51.667Z,3.08
2023-03-12T02:49:53.962Z,3.10
2023-03-12T02:52:56.204Z,3.45
2023-03-12T02:55:58.576Z,3.08
2023-03-12T02:59:03.230Z,3.55
2023-03-12T03:02:07.258Z,3.13
2023-03-12T03:05:11.232Z,3.90
2023-03-12T03:08:13.890Z,3.47
2023-03-12T03:11:16.279Z,3.45
2023-03-12T03:14:19.499Z,3.83
2023-03-12T03:17:25.601Z,3.95
2023-03-12T03:20:28.139Z,3.63
2023-03-12T03:23:30.668Z,4.68
2023-03-12T03:26:33.059Z,4.15
2023-03-12T03:29:35.523Z,4.28
2023-03-12T03:32:38.661Z,3.70
2023-03-12T03:35:41.213Z,4.25
2023-03-12T03:38:49.180Z,3.97
2023-03-12T03:41:52.265Z,3.72
2023-03-12T03:44:57.593Z,4.30
2023-03-12T03:47:59.941Z,3.78
2023-03-12T03:51:03.215Z,3.53
2023-03-12T03:54:07.829Z,3.88
2023-03-12T03:57:10.095Z,3.80
2023-03-12T04:00:13.231Z,3.88
2023-03-12T04:03:20.056Z,3.92
2023-03-12T04:06:22.591Z,3.55
2023-03-12T04:09:24.989Z,3.22
2023-03-12T04:12:28.110Z,4.05
2023-03-12T04:15:30.390Z,4.10
2023-03-12T04:18:36.049Z,4.15
2023-03-12T04:21:39.679Z,4.15
2023-03-12T04:24:42.243Z,4.10
2023-03-12T04:27:44.704Z,4.70
2023-03-12T04:30:59.723Z,3.95
2023-03-12T04:34:03.013Z,3.78
2023-03-12T04:37:05.460Z,4.20
2023-03-12T04:40:09.745Z,3.85
2023-03-12T04:43:12.250Z,3.97
2023-03-12T04:46:14.756Z,4.40
2023-03-12T04:49:18.858Z,4.72
2023-03-12T04:52:21.682Z,4.63
2023-03-12T04:55:24.128Z,4.57
2023-03-12T04:58:26.677Z,4.70
2023-03-12T05:01:32.794Z,5.03
2023-03-12T05:04:37.553Z,4.60
2023-03-12T05:07:39.990Z,5.13
2023-03-12T05:10:45.446Z,19.83
2023-03-12T05:13:50.402Z,11.20
2023-03-12T05:16:53.181Z,8.68
2023-03-12T05:19:55.602Z,5.28
2023-03-12T05:23:01.011Z,5.32
2023-03-12T05:26:03.773Z,6.07
2023-03-12T05:29:06.550Z,5.63
2023-03-12T05:32:12.534Z,6.28
2023-03-12T05:35:15.072Z,5.35
2023-03-12T05:38:19.365Z,6.20
2023-03-12T05:41:24.356Z,5.65
2023-03-12T05:44:29.216Z,5.80
2023-03-12T05:47:31.656Z,5.40
2023-03-12T05:50:34.123Z,5.57
2023-03-12T05:53:36.576Z,5.45
2023-03-12T05:56:39.298Z,4.95
2023-03-12T05:59:42.619Z,5.53
2023-03-12T06:02:45.159Z,5.78
2023-03-12T06:05:48.380Z,5.28
2023-03-12T06:08:51.799Z,5.68
2023-03-12T06:17:59.740Z,4.88
2023-03-12T06:21:14.004Z,4.53
2023-03-12T06:24:16.304Z,4.90
2023-03-12T06:27:25.201Z,4.68
2023-03-12T06:30:27.778Z,4.55
2023-03-12T06:33:30.709Z,4.93
2023-03-12T06:36:33.099Z,5.00
2023-03-12T06:39:35.810Z,4.97
2023-03-12T06:42:38.142Z,5.22
2023-03-12T06:45:40.483Z,5.68
2023-03-12T06:48:43.050Z,7.85
2023-03-12T06:51:45.921Z,5.40
2023-03-12T06:54:48.314Z,5.15
2023-03-12T06:57:50.635Z,5.20
2023-03-12T07:00:58.779Z,5.43
2023-03-12T07:04:01.216Z,5.47
2023-03-12T07:07:04.904Z,4.72
2023-03-12T07:10:07.723Z,4.72
2023-03-12T07:13:13.625Z,5.47
2023-03-12T07:16:16.038Z,4.57
2023-03-12T07:19:19.615Z,4.90
2023-03-12T07:22:21.996Z,5.15
2023-03-12T07:25:24.488Z,5.43
2023-03-12T07:28:29.449Z,5.10
2023-03-12T07:31:32.179Z,5.60
2023-03-12T07:34:34.809Z,4.85
2023-03-12T07:37:40.286Z,12.77
2023-03-12T07:40:42.853Z,7.13
2023-03-12T07:43:45.138Z,9.65
2023-03-12T07:46:47.645Z,5.53
2023-03-12T07:49:50.476Z,4.95
2023-03-12T07:52:55.258Z,5.18
2023-03-12T07:55:57.712Z,5.22
2023-03-12T07:59:00.362Z,4.93
2023-03-12T08:02:02.916Z,5.53
2023-03-12T08:05:06.509Z,5.40
2023-03-12T08:08:09.245Z,4.82
2023-03-12T08:11:11.941Z,5.72
2023-03-12T08:14:14.426Z,5.70
2023-03-12T08:17:17.380Z,5.03
2023-03-12T08:20:19.792Z,5.50
2023-03-12T08:23:22.366Z,5.10
2023-03-12T08:26:25.000Z,5.60
2023-03-12T08:29:27.884Z,19.33
2023-03-12T08:32:30.495Z,6.75
2023-03-12T08:35:32.944Z,6.93
2023-03-12T08:38:35.607Z,5.07
2023-03-12T08:41:38.263Z,5.50
2023-03-12T08:44:40.648Z,4.82
2023-03-12T08:47:44.370Z,4.65
2023-03-12T08:50:46.779Z,4.78
2023-03-12T08:53:49.139Z,4.72
2023-03-12T08:56:52.457Z,4.75
2023-03-12T08:59:54.877Z,4.68
2023-03-12T09:02:58.464Z,5.03
2023-03-12T09:06:13.485Z,5.25
2023-03-12T09:09:16.105Z,4.43
2023-03-12T09:12:18.472Z,5.00
2023-03-12T09:15:20.902Z,4.95
2023-03-12T09:18:23.866Z,5.25
2023-03-12T09:21:26.522Z,4.57
2023-03-12T09:24:29.023Z,4.53
2023-03-12T09:30:33.983Z,4.82
2023-03-12T09:33:36.362Z,10.77
2023-03-12T09:36:38.814Z,15.35
2023-03-12T09:39:41.221Z,7.03
2023-03-12T09:42:54.836Z,4.85
2023-03-12T09:45:57.481Z,5.18
2023-03-12T09:52:04.338Z,5.05
2023-03-12T09:55:19.555Z,4.88
2023-03-12T09:58:33.579Z,5.18
2023-03-12T10:01:42.535Z,5.60
2023-03-12T10:05:00.300Z,4.80
2023-03-12T10:08:25.306Z,10.05
2023-03-12T10:11:39.207Z,9.60
2023-03-12T10:15:03.331Z,4.82
2023-03-12T10:18:24.411Z,4.82
2023-03-12T10:21:38.348Z,4.57
2023-03-12T10:25:02.007Z,4.35
2023-03-12T10:28:28.113Z,4.32
2023-03-12T10:31:44.074Z,4.28
2023-03-12T10:34:53.071Z,4.22
2023-03-12T10:37:58.676Z,4.35
2023-03-12T10:41:00.954Z,6.25
2023-03-12T10:44:07.369Z,5.63
2023-03-12T10:47:35.318Z,4.40
2023-03-12T10:50:40.477Z,4.68
2023-03-12T10:53:45.020Z,4.78
2023-03-12T10:56:50.820Z,3.97
2023-03-12T11:00:07.342Z,3.05
2023-03-12T11:03:28.149Z,3.40
2023-03-12T11:06:30.707Z,3.80
2023-03-12T11:09:33.068Z,3.13
2023-03-12T11:12:37.244Z,3.80
2023-03-12T11:15:41.551Z,3.35
2023-03-12T11:19:04.727Z,5.35
2023-03-12T11:22:11.575Z,3.70
2023-03-12T11:25:28.581Z,4.13
2023-03-12T11:28:52.773Z,3.05
2023-03-12T11:32:06.417Z,2.78
2023-03-12T11:35:14.569Z,2.58
2023-03-12T11:38:21.976Z,2.88
2023-03-12T11:41:36.952Z,3.03
2023-03-12T11:44:48.237Z,2.85
2023-03-12T11:48:04.672Z,1.90
2023-03-12T11:51:25.991Z,1.67
2023-03-12T11:58:04.412Z,2.35
2023-03-12T12:01:22.036Z,2.17
2023-03-12T12:04:48.561Z,1.88
2023-03-12T12:08:02.838Z,1.98
2023-03-12T12:11:08.143Z,2.15
2023-03-12T12:14:16.064Z,2.15
2023-03-12T12:17:25.889Z,2.22
2023-03-12T12:20:30.909Z,2.47
2023-03-12T12:23:59.720Z,2.20
2023-03-12T12:27:19.806Z,2.10
2023-03-12T12:30:48.216Z,2.00
2023-03-12T12:33:56.331Z,1.77
2023-03-12T12:37:16.862Z,2.30
2023-03-12T12:40:29.565Z,2.20
2023-03-12T12:43:35.436Z,2.10
2023-03-12T12:46:40.209Z,2.00
2023-03-12T12:50:00.241Z,1.77
2023-03-12T12:53:31.176Z,1.88
2023-03-12T12:56:34.564Z,2.00
2023-03-12T12:59:57.722Z,2.00
2023-03-12T13:03:00.679Z,2.17
2023-03-12T13:06:05.064Z,1.83
2023-03-12T13:09:15.859Z,2.00
2023-03-12T13:12:44.491Z,1.83
2023-03-12T13:15:47.295Z,1.90
2023-03-12T13:19:08.391Z,1.73
2023-03-12T13:22:10.602Z,1.80
2023-03-12T13:25:38.065Z,1.90
2023-03-12T13:28:56.978Z,1.90
2023-03-12T13:32:02.743Z,2.15
2023-03-12T13:35:36.870Z,1.70
2023-03-12T13:38:55.055Z,1.90
2023-03-12T13:41:58.680Z,1.70
2023-03-12T13:45:25.603Z,1.90
2023-03-12T13:48:28.253Z,2.00
2023-03-12T13:51:30.487Z,1.80
2023-03-12T13:54:34.380Z,1.60
2023-03-12T13:57:41.680Z,1.88
2023-03-12T14:00:48.440Z,1.70
2023-03-12T14:03:55.228Z,1.90
2023-03-12T14:07:17.779Z,2.00
2023-03-12T14:10:27.261Z,1.70
2023-03-12T14:13:29.622Z,2.05
2023-03-12T14:16:46.182Z,2.30
2023-03-12T14:19:53.022Z,2.30
2023-03-12T14:23:01.297Z,2.20
2023-03-12T14:26:04.738Z,1.92
2023-03-12T14:29:10.344Z,2.13
2023-03-12T14:32:20.376Z,2.22
2023-03-12T14:35:30.413Z,2.30
2023-03-12T14:38:33.682Z,2.35
2023-03-12T14:41:37.145Z,2.00
2023-03-12T14:44:40.732Z,2.20
2023-03-12T14:47:54.490Z,2.45
2023-03-12T14:50:57.689Z,2.30
2023-03-12T14:54:02.627Z,2.63
2023-03-12T14:57:04.972Z,2.75
2023-03-12T15:00:16.509Z,2.63
2023-03-12T15:03:18.883Z,2.50
2023-03-12T15:06:34.341Z,2.00
2023-03-12T15:09:36.964Z,2.03
2023-03-12T15:12:39.439Z,2.03
2023-03-12T15:15:44.525Z,2.10
2023-03-12T15:18:48.842Z,2.40
2023-03-12T15:21:51.463Z,2.55
2023-03-12T15:24:54.111Z,2.67
2023-03-12T15:28:04.293Z,2.35
2023-03-12T15:31:15.558Z,2.65
2023-03-12T15:34:38.741Z,10.02
2023-03-12T15:37:42.923Z,10.10
2023-03-12T15:40:50.205Z,2.70
2023-03-12T15:43:55.532Z,2.22
2023-03-12T15:47:04.993Z,2.33
2023-03-12T15:50:18.438Z,2.65
2023-03-12T15:53:20.624Z,2.40
2023-03-12T15:56:23.796Z,2.60
2023-03-12T15:59:27.845Z,2.10
2023-03-12T16:02:38.844Z,2.42
2023-03-12T16:05:41.260Z,2.25
2023-03-12T16:08:49.741Z,2.13
2023-03-12T16:11:53.824Z,20.77
2023-03-12T16:14:56.140Z,8.98
2023-03-12T16:17:58.451Z,12.82
2023-03-12T16:21:00.741Z,4.32
2023-03-12T16:24:03.078Z,3.08
2023-03-12T16:27:07.059Z,2.30
2023-03-12T16:30:22.896Z,1.92
2023-03-12T16:33:25.343Z,2.30
2023-03-12T16:36:27.711Z,2.50
2023-03-12T16:39:33.151Z,2.50
2023-03-12T16:42:35.852Z,2.05
2023-03-12T16:45:43.491Z,2.33
2023-03-12T16:48:48.976Z,2.22
2023-03-12T16:51:51.336Z,2.50
2023-03-12T16:54:53.727Z,3.15
2023-03-12T16:57:58.236Z,3.60
2023-03-12T17:01:00.605Z,2.55
2023-03-12T17:04:04.964Z,3.05
2023-03-12T17:07:08.041Z,2.95
2023-03-12T17:10:11.454Z,3.22
2023-03-12T17:13:29.254Z,3.10
2023-03-12T17:16:31.546Z,3.05
2023-03-12T17:19:33.847Z,3.03
2023-03-12T17:22:39.034Z,3.05
2023-03-12T17:25:42.995Z,3.40
2023-03-12T17:28:45.577Z,3.47
2023-03-12T17:31:47.899Z,3.80
2023-03-12T17:34:57.887Z,4.05
2023-03-12T17:38:00.215Z,4.05
2023-03-12T17:41:09.362Z,4.22
2023-03-12T17:44:19.084Z,4.40
2023-03-12T17:47:21.331Z,4.43
2023-03-12T17:50:23.792Z,4.03
2023-03-12T17:53:26.091Z,5.13
2023-03-12T17:56:28.560Z,4.40
2023-03-12T17:59:30.913Z,5.30
2023-03-12T18:02:33.121Z,4.90
2023-03-12T18:05:39.960Z,4.22
2023-03-12T18:08:42.313Z,5.00
2023-03-12T18:11:44.566Z,5.18
2023-03-12T18:14:46.876Z,4.95
2023-03-12T18:17:52.400Z,5.53
2023-03-12T18:20:54.806Z,6.82
2023-03-12T18:23:59.446Z,6.63
2023-03-12T18:27:04.458Z,7.88
2023-03-12T18:30:13.920Z,7.80
2023-03-12T18:42:22.810Z,10.20
2023-03-12T18:45:25.301Z,11.57
2023-03-12T18:48:27.737Z,12.95
2023-03-12T18:51:30.028Z,10.10
2023-03-12T18:54:33.702Z,10.13
2023-03-12T18:57:36.108Z,10.25
2023-03-12T19:00:38.402Z,9.85
2023-03-12T19:03:40.727Z,8.63
2023-03-12T19:06:50.687Z,9.13
2023-03-12T19:09:53.314Z,10.45
2023-03-12T19:12:55.688Z,9.95
2023-03-12T19:15:59.938Z,9.98
2023-03-12T19:19:02.294Z,9.70
2023-03-12T19:22:04.782Z,11.43
2023-03-12T19:25:07.254Z,11.65
2023-03-12T19:28:09.667Z,11.38
2023-03-12T19:31:15.349Z,10.52
2023-03-12T19:34:17.909Z,11.63
2023-03-12T19:37:20.638Z,11.40
2023-03-12T19:40:22.915Z,13.25
2023-03-12T19:43:25.829Z,11.65
2023-03-12T19:46:28.452Z,11.50
2023-03-12T19:49:30.752Z,11.30
2023-03-12T19:52:33.052Z,11.35
2023-03-12T19:55:35.302Z,10.98
2023-03-12T19:58:37.601Z,11.77
2023-03-12T20:01:41.417Z,11.55
2023-03-12T20:04:43.739Z,12.27
2023-03-12T20:07:46.806Z,12.15
2023-03-12T20:10:49.571Z,13.25
2023-03-12T20:13:52.148Z,12.60
2023-03-12T20:16:54.464Z,13.00
2023-03-12T20:19:56.866Z,14.32
2023-03-12T20:22:59.120Z,12.68
2023-03-12T20:26:01.384Z,13.35
2023-03-12T20:29:04.565Z,13.10
2023-03-12T20:32:06.905Z,11.98
2023-03-12T20:35:09.666Z,12.63
2023-03-12T20:38:12.221Z,13.40
2023-03-12T20:41:14.975Z,11.20
2023-03-12T20:44:18.436Z,12.20
2023-03-12T20:47:20.683Z,12.65
2023-03-12T20:50:22.967Z,11.60
2023-03-12T20:53:27.749Z,12.93
2023-03-12T20:56:29.979Z,11.85
2023-03-12T20:59:32.297Z,12.15
2023-03-12T21:02:34.781Z,12.30
2023-03-12T21:05:37.048Z,12.43
2023-03-12T21:08:39.342Z,11.63
2023-03-12T21:11:42.100Z,11.18
2023-03-12T21:14:44.475Z,11.65
2023-03-12T21:17:47.004Z,13.15
2023-03-12T21:20:49.229Z,12.43
2023-03-12T21:23:51.795Z,12.07
2023-03-12T21:26:54.289Z,11.10
2023-03-12T21:29:56.689Z,12.13
2023-03-12T21:32:58.931Z,11.60
2023-03-12T21:36:07.664Z,10.95
2023-03-12T21:39:09.891Z,12.32
2023-03-12T21:42:12.129Z,12.48
2023-03-12T21:45:14.592Z,10.65
2023-03-12T21:48:16.806Z,12.25
2023-03-12T21:51:19.679Z,11.85
2023-03-12T21:54:21.921Z,13.02
2023-03-12T21:57:24.180Z,13.13
2023-03-12T22:00:26.531Z,12.45
2023-03-12T22:03:29.100Z,12.90
2023-03-12T22:06:31.642Z,13.20
2023-03-12T22:09:33.996Z,11.98
2023-03-12T22:12:36.242Z,14.68
2023-03-12T22:15:38.606Z,13.48
2023-03-12T22:18:43.371Z,15.25
2023-03-12T22:21:45.685Z,13.85
2023-03-12T22:24:47.966Z,13.63
2023-03-12T22:27:50.222Z,13.52
2023-03-12T22:31:00.900Z,14.15
2023-03-12T22:34:03.339Z,13.45
2023-03-12T22:37:05.643Z,12.40
2023-03-12T22:40:09.860Z,12.68
2023-03-12T22:43:12.150Z,11.65
2023-03-12T22:46:16.533Z,11.55
2023-03-12T22:49:18.996Z,12.57
2023-03-12T22:52:21.267Z,13.27
2023-03-12T22:55:23.669Z,12.65
2023-03-12T22:58:26.585Z,11.43
2023-03-12T23:01:28.967Z,11.15
2023-03-12T23:04:31.423Z,10.68
2023-03-12T23:07:34.950Z,25.90
2023-03-12T23:10:37.220Z,59.47
2023-03-12T23:13:41.524Z,11.88
2023-03-12T23:16:43.878Z,9.38
2023-03-12T23:19:46.193Z,9.18
2023-03-12T23:22:48.432Z,9.43
2023-03-12T23:25:55.327Z,7.97
2023-03-12T23:28:59.013Z,7.25
2023-03-12T23:32:01.509Z,6.53
2023-03-12T23:35:03.902Z,6.57
2023-03-12T23:38:06.895Z,6.75
2023-03-12T23:41:12.972Z,5.72
2023-03-12T23:44:15.270Z,5.80
2023-03-12T23:47:17.505Z,6.35
2023-03-12T23:50:19.824Z,5.50
2023-03-12T23:53:22.200Z,5.93
2023-03-12T23:56:29.188Z,6.72
2023-03-12T23:59:31.466Z,6.07
